Warning: include(/datas/vol1/w4a123858/var/www/legheer.be/meteo3/wt_data_intl.php): failed to open stream: No such file or directory in /datas/vol1/w4a123858/var/www/legheer.be/meteo3/wuh.php on line 24

Warning: include(): Failed opening 'wt_data_intl.php' for inclusion (include_path='.:/opt/alt/php56/usr/share/pear') in /datas/vol1/w4a123858/var/www/legheer.be/meteo3/wuh.php on line 24
| Quelques graphiques

Language: 


Des rapports , des résumés tant et plus, au choix de chacun....


Données statistiques de la station
Quotidien Rapport Janvier 3, 2017 Unités:  Anglais    Métrique   les deux
« Précédent Jour
Suivant Jour »
Quotidien Hebdomadaire Mensuel Annuel Actuel
  Haut: Bas: Moyen:
Température: 43.3 °F 27.1 °F 34.9 °F
Pt de rosée: 39.9 °F 26.8 °F 33.6 °F
Humidité: 98 % 86 % 95 %
Vitesse du vent: 11 mph 0 mph 5.2 mph
Rafales: 13.9 mph - -
Vent:- - WSW
Pression: 30.4 in 30.2 in -
Précipitation: 0 in    
Historical Graphs
 
 
Données statistiques pour Janvier 3, 2017
Heure Température Point de rosée Pression Vent Vitesse du vent Refales Humidité Pluie (taux horaire)
00:09 33.4 °F 32.7 °F 30.3 in WNW 2.5 mph 2.5 mph 97 % 0 in
00:19 33.1 °F 32.4 °F 30.3 in Calm   4.7 mph 97 % 0 in
00:29 33.1 °F 32.4 °F 30.3 in West 2.9 mph 3.8 mph 97 % 0 in
00:39 32.7 °F 31.8 °F 30.3 in Calm   4 mph 97 % 0 in
00:49 32.5 °F 31.8 °F 30.4 in Calm     97 % 0 in
00:59 32.4 °F 31.6 °F 30.4 in West 2.9 mph 2.9 mph 97 % 0 in
01:09 32.2 °F 31.5 °F 30.4 in West 1.6 mph 2.9 mph 97 % 0 in
01:19 31.6 °F 30.9 °F 30.3 in Calm   1.6 mph 97 % 0 in
01:29 31.3 °F 30.6 °F 30.3 in Calm     97 % 0 in
01:39 31.5 °F 30.7 °F 30.4 in Calm   3.1 mph 97 % 0 in
01:49 31.3 °F 30.7 °F 30.3 in WSW 3.6 mph 3.8 mph 98 % 0 in
01:59 31.5 °F 30.9 °F 30.3 in West 4 mph 4.5 mph 98 % 0 in
02:09 31.8 °F 31.3 °F 30.3 in West 4 mph 4.9 mph 98 % 0 in
02:19 32 °F 31.5 °F 30.3 in West 4.3 mph 4.9 mph 98 % 0 in
02:29 32.2 °F 31.6 °F 30.3 in West 4.3 mph 5.4 mph 98 % 0 in
02:39 32 °F 31.5 °F 30.3 in West 5.6 mph 5.6 mph 98 % 0 in
02:49 31.8 °F 31.3 °F 30.3 in West 4 mph 5.6 mph 98 % 0 in
02:59 31.6 °F 31.1 °F 30.3 in West 5.4 mph 5.4 mph 98 % 0 in
03:09 31.3 °F 30.7 °F 30.4 in WSW 3.6 mph 5.6 mph 98 % 0 in
03:19 31.1 °F 30.6 °F 30.3 in West 3.4 mph 5.8 mph 98 % 0 in
03:29 30.7 °F 30.4 °F 30.3 in WSW 3.6 mph 5.8 mph 98 % 0 in
03:39 30.6 °F 30 °F 30.3 in WSW 3.8 mph 4.7 mph 98 % 0 in
03:49 30.4 °F 29.8 °F 30.3 in West 4 mph 4.7 mph 98 % 0 in
03:59 30.4 °F 29.8 °F 30.3 in WSW 3.6 mph 4.9 mph 98 % 0 in
04:09 30.2 °F 29.7 °F 30.3 in WSW 2.9 mph 4.5 mph 98 % 0 in
04:19 29.8 °F 29.5 °F 30.3 in WSW 3.6 mph 4 mph 98 % 0 in
04:29 30 °F 29.7 °F 30.3 in WSW 2.7 mph 4.3 mph 98 % 0 in
04:39 30 °F 29.7 °F 30.3 in West 3.4 mph 4 mph 98 % 0 in
04:49 29.8 °F 29.5 °F 30.3 in WSW 2.7 mph 4 mph 98 % 0 in
04:59 29.7 °F 29.1 °F 30.3 in WSW 4.5 mph 4.5 mph 98 % 0 in
05:09 29.7 °F 29.1 °F 30.3 in WSW 3.1 mph 5.4 mph 98 % 0 in
05:19 29.5 °F 28.9 °F 30.3 in WSW 3.4 mph 4.3 mph 98 % 0 in
05:29 29.5 °F 28.9 °F 30.3 in WSW 3.6 mph 4 mph 98 % 0 in
05:49 29.8 °F 29.5 °F 30.3 in West 3.4 mph 5.4 mph 98 % 0 in
05:59 30 °F 29.7 °F 30.3 in West 4.3 mph 5.4 mph 98 % 0 in
06:09 29.7 °F 29.1 °F 30.3 in West 4 mph 6 mph 98 % 0 in
06:19 29.5 °F 28.9 °F 30.3 in WSW 3.6 mph 6 mph 98 % 0 in
06:29 29.5 °F 28.9 °F 30.3 in West 3.8 mph 4.7 mph 98 % 0 in
06:39 29.1 °F 28.8 °F 30.3 in WSW 3.1 mph 4.7 mph 98 % 0 in
06:49 28.9 °F 28.6 °F 30.3 in Calm   3.8 mph 98 % 0 in
06:59 28.6 °F 28.2 °F 30.3 in Calm     98 % 0 in
07:09 27.9 °F 27.5 °F 30.3 in Calm     98 % 0 in
07:19 27.1 °F 26.8 °F 30.3 in Calm     98 % 0 in
07:29 27.3 °F 27 °F 30.3 in Calm   0.9 mph 98 % 0 in
07:39 28.2 °F 27.9 °F 30.3 in West 4 mph 4.9 mph 98 % 0 in
07:49 28.6 °F 28 °F 30.3 in West 3.6 mph 4.3 mph 98 % 0 in
07:59 28.6 °F 28.2 °F 30.3 in West 4 mph 4.3 mph 98 % 0 in
08:09 28.6 °F 28.2 °F 30.4 in WSW 4.7 mph 5.4 mph 98 % 0 in
08:19 28.8 °F 28.2 °F 30.3 in WSW 4.5 mph 6 mph 98 % 0 in
08:29 28.8 °F 28.2 °F 30.3 in WSW 3.8 mph 5.6 mph 98 % 0 in
08:39 28.6 °F 28 °F 30.3 in WSW 4.5 mph 4.9 mph 98 % 0 in
08:49 28.6 °F 28.2 °F 30.3 in WSW 3.6 mph 5.6 mph 98 % 0 in
08:59 28.6 °F 28.2 °F 30.3 in West 4.7 mph 5.6 mph 98 % 0 in
09:09 28.8 °F 28.2 °F 30.3 in West 4.3 mph 5.8 mph 98 % 0 in
09:19 29.1 °F 28.8 °F 30.3 in West 6.3 mph 6.3 mph 98 % 0 in
09:29 29.5 °F 28.9 °F 30.3 in WSW 4 mph 6.3 mph 98 % 0 in
09:39 29.8 °F 29.5 °F 30.3 in WSW 5.4 mph 6.3 mph 98 % 0 in
09:49 30.2 °F 29.7 °F 30.3 in WSW 4.9 mph 5.6 mph 98 % 0 in
09:59 30.6 °F 30 °F 30.3 in West 2.7 mph 5.6 mph 98 % 0 in
10:09 30.9 °F 30.4 °F 30.3 in WSW 4.3 mph 5.4 mph 98 % 0 in
10:19 32.2 °F 31.6 °F 30.3 in WSW 3.1 mph 5.8 mph 98 % 0 in
10:29 33.1 °F 32.5 °F 30.3 in WSW 3.8 mph 6 mph 98 % 0 in
10:39 33.6 °F 33.1 °F 30.3 in WSW 4 mph 5.6 mph 98 % 0 in
10:49 34.2 °F 33.6 °F 30.3 in WSW 5.6 mph 8.1 mph 98 % 0 in
10:59 34.5 °F 34.2 °F 30.3 in WSW 5.4 mph 7.8 mph 98 % 0 in
11:09 35.4 °F 34.9 °F 30.3 in WSW 5.4 mph 8.5 mph 98 % 0 in
11:19 35.4 °F 35.1 °F 30.3 in WSW 7.6 mph 8.7 mph 98 % 0 in
11:29 36 °F 35.4 °F 30.3 in WSW 6.7 mph 8.7 mph 98 % 0 in
11:39 36.7 °F 36.1 °F 30.3 in West 7.8 mph 7.8 mph 98 % 0 in
11:49 36.9 °F 36.3 °F 30.3 in WSW 5.6 mph 9.2 mph 98 % 0 in
12:09 37.6 °F 37 °F 30.3 in WSW 6 mph 7.8 mph 98 % 0 in
12:19 37.9 °F 37.6 °F 30.3 in WSW 6.5 mph 7.4 mph 98 % 0 in
12:29 38.5 °F 37.8 °F 30.3 in West 4.9 mph 7.4 mph 98 % 0 in
12:39 38.8 °F 38.1 °F 30.3 in WSW 7.4 mph 9.6 mph 97 % 0 in
12:49 39.9 °F 38.8 °F 30.3 in WSW 5.6 mph 8.7 mph 96 % 0 in
12:59 40.3 °F 39 °F 30.3 in WSW 5.4 mph 11.4 mph 95 % 0 in
13:09 40.8 °F 39.2 °F 30.3 in WSW 6 mph 10.3 mph 94 % 0 in
13:19 41.2 °F 39.4 °F 30.3 in WSW 9.8 mph 9.8 mph 93 % 0 in
13:29 41.2 °F 38.1 °F 30.3 in WSW 8.7 mph 12.3 mph 89 % 0 in
13:39 41.5 °F 38.5 °F 30.3 in WSW 8.7 mph 11 mph 89 % 0 in
13:49 41.5 °F 38.5 °F 30.3 in WSW 7.8 mph 12.3 mph 89 % 0 in
13:59 42.3 °F 39.2 °F 30.3 in WSW 8.7 mph 11 mph 89 % 0 in
14:09 42.4 °F 39.4 °F 30.3 in WSW 10.5 mph 12.5 mph 89 % 0 in
14:19 43 °F 39.6 °F 30.2 in WSW 8.7 mph 11.2 mph 88 % 0 in
14:29 43.3 °F 39.9 °F 30.2 in West 10.1 mph 12.8 mph 88 % 0 in
14:39 42.6 °F 38.7 °F 30.3 in West 10.3 mph 13.9 mph 86 % 0 in
14:49 42.3 °F 38.7 °F 30.3 in WSW 5.6 mph 13 mph 87 % 0 in
14:59 42.1 °F 38.8 °F 30.3 in West 10.7 mph 10.7 mph 88 % 0 in
15:09 41.7 °F 38.5 °F 30.2 in West 9.2 mph 10.7 mph 88 % 0 in
15:19 41.2 °F 38.1 °F 30.3 in WSW 9.4 mph 10.7 mph 89 % 0 in
15:29 41 °F 37.9 °F 30.3 in WSW 9.8 mph 10.7 mph 89 % 0 in
15:39 40.5 °F 37.8 °F 30.3 in WSW 6.9 mph 10.3 mph 90 % 0 in
15:49 40.1 °F 37.8 °F 30.3 in WSW 7.6 mph 10.5 mph 91 % 0 in
15:59 39.7 °F 37.2 °F 30.3 in West 7.4 mph 10.1 mph 91 % 0 in
16:09 39.6 °F 37.2 °F 30.3 in WSW 7.8 mph 12.3 mph 91 % 0 in
16:19 39.6 °F 37.6 °F 30.3 in West 9.8 mph 12.3 mph 92 % 0 in
16:29 39.2 °F 37 °F 30.3 in WSW 8.7 mph 10.7 mph 92 % 0 in
16:39 39 °F 36.7 °F 30.3 in WSW 10.1 mph 13.2 mph 91 % 0 in
16:49 38.8 °F 36.9 °F 30.3 in WSW 8.7 mph 11 mph 92 % 0 in
16:59 38.5 °F 36.1 °F 30.3 in WSW 6.5 mph 8.7 mph 91 % 0 in
17:09 37.6 °F 34.9 °F 30.2 in WSW 5.6 mph 7.6 mph 90 % 0 in
17:19 37 °F 34.7 °F 30.2 in WSW 5.4 mph 6.5 mph 91 % 0 in
17:29 36.9 °F 35.1 °F 30.2 in WSW 5.8 mph 8.1 mph 93 % 0 in
17:39 36.9 °F 35.2 °F 30.3 in WSW 6 mph 8.1 mph 94 % 0 in
17:49 36.9 °F 35.2 °F 30.2 in WSW 6.3 mph 8.5 mph 94 % 0 in
17:59 37 °F 35.8 °F 30.2 in West 6 mph 8.7 mph 95 % 0 in
18:09 37 °F 36.1 °F 30.2 in WSW 4.9 mph 9.4 mph 96 % 0 in
18:19 36.7 °F 35.2 °F 30.2 in WSW 1.3 mph 5.4 mph 95 % 0 in
18:29 36.1 °F 34.9 °F 30.2 in West 5.6 mph 5.6 mph 95 % 0 in
18:39 36.1 °F 34.9 °F 30.2 in WSW 5.8 mph 6 mph 95 % 0 in
18:49 35.8 °F 34.3 °F 30.2 in WSW 4.7 mph 6.3 mph 95 % 0 in
18:59 36.1 °F 35.1 °F 30.2 in West 5.8 mph 6.5 mph 96 % 0 in
19:09 36.1 °F 35.2 °F 30.2 in West 2.9 mph 6.5 mph 96 % 0 in
19:19 36 °F 34.9 °F 30.2 in WSW 4.9 mph 5.8 mph 96 % 0 in
19:29 36.1 °F 35.1 °F 30.2 in WSW 5.8 mph 6.3 mph 96 % 0 in
19:49 36.3 °F 35.6 °F 30.2 in West 2.9 mph 3.4 mph 97 % 0 in
19:59 36.3 °F 35.6 °F 30.2 in West 3.6 mph 4.7 mph 97 % 0 in
20:09 36.1 °F 35.4 °F 30.2 in West 4 mph 4.9 mph 97 % 0 in
20:19 36.3 °F 35.6 °F 30.2 in Calm   5.6 mph 97 % 0 in
20:29 36.3 °F 35.6 °F 30.2 in West 3.1 mph 4 mph 97 % 0 in
20:39 36.1 °F 35.4 °F 30.2 in WSW 4.7 mph 5.4 mph 97 % 0 in
20:49 36.1 °F 35.4 °F 30.2 in WSW 5.8 mph 7.4 mph 97 % 0 in
20:59 36.7 °F 35.8 °F 30.2 in WSW 5.8 mph 5.8 mph 97 % 0 in
21:09 36.9 °F 36 °F 30.2 in West 5.8 mph 7.8 mph 97 % 0 in
21:29 37.6 °F 36.9 °F 30.2 in West 5.4 mph 7.6 mph 97 % 0 in
21:39 37.9 °F 37.2 °F 30.2 in West 7.2 mph 9.8 mph 97 % 0 in
21:49 38.5 °F 37.8 °F 30.2 in West 6.5 mph 11 mph 97 % 0 in
21:59 38.8 °F 37.8 °F 30.2 in West 9.8 mph 12.8 mph 96 % 0 in
22:09 39 °F 37.6 °F 30.2 in WSW 9.8 mph 11.2 mph 94 % 0 in
22:19 39 °F 36.9 °F 30.2 in WSW 7.6 mph 10.7 mph 92 % 0 in
22:29 39.2 °F 37 °F 30.2 in West 11 mph 13.2 mph 92 % 0 in
22:39 39.4 °F 36.7 °F 30.2 in WSW 10.5 mph 13.4 mph 90 % 0 in
22:49 39.4 °F 37 °F 30.2 in SW 4.7 mph 12.3 mph 91 % 0 in
22:59 39.4 °F 37 °F 30.2 in West 6.3 mph 10.5 mph 91 % 0 in
23:09 39.4 °F 37 °F 30.2 in West 8.5 mph 10.5 mph 91 % 0 in
23:19 39.6 °F 37.2 °F 30.2 in West 10.7 mph 12.8 mph 91 % 0 in
23:29 39.7 °F 37.2 °F 30.2 in West 10.3 mph 13 mph 91 % 0 in
23:39 39.7 °F 37.2 °F 30.2 in West 8.1 mph 13 mph 91 % 0 in
23:49 40.1 °F 37.8 °F 30.2 in West 6.5 mph 11.4 mph 91 % 0 in
23:59 40.1 °F 37.8 °F 30.2 in West 4.3 mph 9.6 mph 91 % 0 in
Le Gheer Warneton
Courtoisie de Weather Underground - 1.25 mb

Mise a jour :
Généré par Cumulus ()